sensor_id;sensor_type;location;lat;lon;timestamp;P1;durP1;ratioP1;P2;durP2;ratioP2
66741;SDS011;53654;54.152;19.432;2024-03-23T00:53:59;13.60;;;5.60;;
66741;SDS011;53654;54.152;19.432;2024-03-23T00:56:27;13.00;;;5.90;;
66741;SDS011;53654;54.152;19.432;2024-03-23T00:58:55;12.30;;;5.90;;
66741;SDS011;53654;54.152;19.432;2024-03-23T01:01:23;12.50;;;6.50;;
66741;SDS011;53654;54.152;19.432;2024-03-23T01:03:51;13.00;;;6.50;;
66741;SDS011;53654;54.152;19.432;2024-03-23T01:06:18;12.20;;;6.20;;
66741;SDS011;53654;54.152;19.432;2024-03-23T01:08:46;13.80;;;6.50;;
66741;SDS011;53654;54.152;19.432;2024-03-23T01:11:15;12.20;;;6.40;;
66741;SDS011;53654;54.152;19.432;2024-03-23T01:13:43;14.90;;;6.30;;
66741;SDS011;53654;54.152;19.432;2024-03-23T01:16:11;12.90;;;6.40;;
66741;SDS011;53654;54.152;19.432;2024-03-23T01:18:39;13.20;;;6.70;;
66741;SDS011;53654;54.152;19.432;2024-03-23T01:21:07;12.40;;;6.40;;
66741;SDS011;53654;54.152;19.432;2024-03-23T01:23:35;13.10;;;6.50;;
66741;SDS011;53654;54.152;19.432;2024-03-23T01:26:03;11.50;;;6.50;;
66741;SDS011;53654;54.152;19.432;2024-03-23T01:28:31;11.30;;;6.30;;
66741;SDS011;53654;54.152;19.432;2024-03-23T01:30:59;11.20;;;6.10;;
66741;SDS011;53654;54.152;19.432;2024-03-23T01:33:27;11.40;;;6.10;;
66741;SDS011;53654;54.152;19.432;2024-03-23T01:35:55;13.70;;;6.80;;
66741;SDS011;53654;54.152;19.432;2024-03-23T01:38:23;12.70;;;6.30;;
66741;SDS011;53654;54.152;19.432;2024-03-23T01:40:56;13.90;;;7.00;;
66741;SDS011;53654;54.152;19.432;2024-03-23T01:43:25;13.10;;;6.80;;
66741;SDS011;53654;54.152;19.432;2024-03-23T01:45:53;11.70;;;6.30;;
66741;SDS011;53654;54.152;19.432;2024-03-23T01:48:21;12.10;;;6.20;;
66741;SDS011;53654;54.152;19.432;2024-03-23T01:50:49;13.50;;;6.80;;
66741;SDS011;53654;54.152;19.432;2024-03-23T01:53:17;12.50;;;6.50;;
66741;SDS011;53654;54.152;19.432;2024-03-23T01:55:49;13.50;;;6.30;;
66741;SDS011;53654;54.152;19.432;2024-03-23T01:58:18;11.70;;;6.00;;
66741;SDS011;53654;54.152;19.432;2024-03-23T02:00:46;11.60;;;6.40;;
66741;SDS011;53654;54.152;19.432;2024-03-23T02:03:24;10.90;;;6.30;;
66741;SDS011;53654;54.152;19.432;2024-03-23T02:05:54;13.00;;;6.30;;
66741;SDS011;53654;54.152;19.432;2024-03-23T02:08:23;14.80;;;6.80;;
66741;SDS011;53654;54.152;19.432;2024-03-23T02:10:52;12.10;;;6.70;;
66741;SDS011;53654;54.152;19.432;2024-03-23T02:13:20;13.00;;;7.00;;
66741;SDS011;53654;54.152;19.432;2024-03-23T02:15:48;12.50;;;6.70;;
66741;SDS011;53654;54.152;19.432;2024-03-23T02:18:16;11.90;;;6.90;;
66741;SDS011;53654;54.152;19.432;2024-03-23T02:20:44;13.90;;;6.90;;
66741;SDS011;53654;54.152;19.432;2024-03-23T02:23:13;14.40;;;6.80;;
66741;SDS011;53654;54.152;19.432;2024-03-23T02:25:42;11.60;;;6.40;;
66741;SDS011;53654;54.152;19.432;2024-03-23T02:28:10;14.80;;;7.00;;
66741;SDS011;53654;54.152;19.432;2024-03-23T02:30:38;12.30;;;6.70;;
66741;SDS011;53654;54.152;19.432;2024-03-23T02:33:06;13.60;;;6.80;;
66741;SDS011;53654;54.152;19.432;2024-03-23T02:35:34;13.90;;;6.80;;
66741;SDS011;53654;54.152;19.432;2024-03-23T02:38:02;13.40;;;6.70;;
66741;SDS011;53654;54.152;19.432;2024-03-23T02:40:30;12.80;;;6.90;;
66741;SDS011;53654;54.152;19.432;2024-03-23T02:42:58;13.40;;;6.70;;
66741;SDS011;53654;54.152;19.432;2024-03-23T02:45:26;14.50;;;7.10;;
66741;SDS011;53654;54.152;19.432;2024-03-23T02:47:54;12.10;;;6.70;;
66741;SDS011;53654;54.152;19.432;2024-03-23T02:50:22;14.20;;;7.00;;
66741;SDS011;53654;54.152;19.432;2024-03-23T02:52:51;15.10;;;6.70;;
66741;SDS011;53654;54.152;19.432;2024-03-23T02:55:19;13.80;;;7.10;;
66741;SDS011;53654;54.152;19.432;2024-03-23T02:57:47;12.50;;;6.50;;
66741;SDS011;53654;54.152;19.432;2024-03-23T03:00:15;15.10;;;7.60;;
66741;SDS011;53654;54.152;19.432;2024-03-23T03:02:43;12.70;;;7.40;;
66741;SDS011;53654;54.152;19.432;2024-03-23T03:05:11;15.00;;;7.70;;
66741;SDS011;53654;54.152;19.432;2024-03-23T03:07:40;16.80;;;8.20;;
66741;SDS011;53654;54.152;19.432;2024-03-23T03:10:09;14.60;;;7.50;;
66741;SDS011;53654;54.152;19.432;2024-03-23T03:12:38;14.60;;;8.50;;
66741;SDS011;53654;54.152;19.432;2024-03-23T03:15:07;16.00;;;10.40;;
66741;SDS011;53654;54.152;19.432;2024-03-23T03:17:36;16.00;;;8.80;;
66741;SDS011;53654;54.152;19.432;2024-03-23T03:20:05;15.70;;;8.90;;
66741;SDS011;53654;54.152;19.432;2024-03-23T03:22:34;14.60;;;8.90;;
66741;SDS011;53654;54.152;19.432;2024-03-23T03:25:02;16.40;;;9.00;;
66741;SDS011;53654;54.152;19.432;2024-03-23T03:27:30;16.00;;;9.30;;
66741;SDS011;53654;54.152;19.432;2024-03-23T03:29:59;14.60;;;9.10;;
66741;SDS011;53654;54.152;19.432;2024-03-23T03:32:29;16.20;;;9.20;;
66741;SDS011;53654;54.152;19.432;2024-03-23T03:34:57;14.20;;;9.00;;
66741;SDS011;53654;54.152;19.432;2024-03-23T03:37:25;15.20;;;8.20;;
66741;SDS011;53654;54.152;19.432;2024-03-23T03:39:53;14.70;;;7.90;;
66741;SDS011;53654;54.152;19.432;2024-03-23T03:42:21;14.10;;;8.20;;
66741;SDS011;53654;54.152;19.432;2024-03-23T03:44:49;13.80;;;8.20;;
66741;SDS011;53654;54.152;19.432;2024-03-23T03:47:17;17.20;;;8.30;;
66741;SDS011;53654;54.152;19.432;2024-03-23T03:49:45;16.10;;;8.40;;
66741;SDS011;53654;54.152;19.432;2024-03-23T03:52:13;13.70;;;7.70;;
66741;SDS011;53654;54.152;19.432;2024-03-23T03:54:41;13.60;;;7.90;;
66741;SDS011;53654;54.152;19.432;2024-03-23T03:57:09;14.60;;;7.50;;
66741;SDS011;53654;54.152;19.432;2024-03-23T03:59:37;13.70;;;7.40;;
66741;SDS011;53654;54.152;19.432;2024-03-23T04:02:05;13.80;;;7.90;;
66741;SDS011;53654;54.152;19.432;2024-03-23T04:04:33;15.80;;;8.40;;
66741;SDS011;53654;54.152;19.432;2024-03-23T04:07:01;14.10;;;8.00;;
66741;SDS011;53654;54.152;19.432;2024-03-23T04:09:30;18.00;;;9.30;;
66741;SDS011;53654;54.152;19.432;2024-03-23T04:11:58;15.70;;;9.70;;
66741;SDS011;53654;54.152;19.432;2024-03-23T04:14:26;17.20;;;10.60;;
66741;SDS011;53654;54.152;19.432;2024-03-23T04:16:54;17.90;;;10.20;;
66741;SDS011;53654;54.152;19.432;2024-03-23T04:19:23;16.90;;;10.80;;
66741;SDS011;53654;54.152;19.432;2024-03-23T04:21:51;20.10;;;11.90;;
66741;SDS011;53654;54.152;19.432;2024-03-23T04:24:19;17.90;;;11.40;;
66741;SDS011;53654;54.152;19.432;2024-03-23T04:26:48;22.20;;;13.20;;
66741;SDS011;53654;54.152;19.432;2024-03-23T04:29:16;21.00;;;12.70;;
66741;SDS011;53654;54.152;19.432;2024-03-23T04:31:44;19.00;;;11.20;;
66741;SDS011;53654;54.152;19.432;2024-03-23T04:34:12;17.90;;;11.40;;
66741;SDS011;53654;54.152;19.432;2024-03-23T04:36:41;20.40;;;11.90;;
66741;SDS011;53654;54.152;19.432;2024-03-23T04:39:08;17.80;;;12.40;;
66741;SDS011;53654;54.152;19.432;2024-03-23T04:41:36;20.70;;;11.70;;
66741;SDS011;53654;54.152;19.432;2024-03-23T04:44:04;18.10;;;11.70;;
66741;SDS011;53654;54.152;19.432;2024-03-23T04:46:34;17.60;;;11.20;;
66741;SDS011;53654;54.152;19.432;2024-03-23T04:49:02;17.50;;;11.30;;
66741;SDS011;53654;54.152;19.432;2024-03-23T04:51:35;17.60;;;10.40;;
66741;SDS011;53654;54.152;19.432;2024-03-23T04:54:07;17.50;;;10.80;;
66741;SDS011;53654;54.152;19.432;2024-03-23T04:56:35;18.00;;;10.30;;
66741;SDS011;53654;54.152;19.432;2024-03-23T04:59:04;15.70;;;9.60;;
66741;SDS011;53654;54.152;19.432;2024-03-23T05:01:32;19.60;;;8.70;;
66741;SDS011;53654;54.152;19.432;2024-03-23T05:04:03;17.00;;;8.00;;
66741;SDS011;53654;54.152;19.432;2024-03-23T05:06:31;18.60;;;8.10;;
66741;SDS011;53654;54.152;19.432;2024-03-23T05:08:59;17.00;;;8.10;;
66741;SDS011;53654;54.152;19.432;2024-03-23T05:11:27;13.50;;;7.80;;
66741;SDS011;53654;54.152;19.432;2024-03-23T05:13:55;16.00;;;8.40;;
66741;SDS011;53654;54.152;19.432;2024-03-23T05:16:22;17.60;;;8.30;;
66741;SDS011;53654;54.152;19.432;2024-03-23T05:18:51;14.80;;;8.60;;
66741;SDS011;53654;54.152;19.432;2024-03-23T05:21:19;18.30;;;8.60;;
66741;SDS011;53654;54.152;19.432;2024-03-23T05:23:46;19.10;;;9.10;;
66741;SDS011;53654;54.152;19.432;2024-03-23T05:26:15;18.00;;;8.00;;
66741;SDS011;53654;54.152;19.432;2024-03-23T05:28:43;19.00;;;9.00;;
66741;SDS011;53654;54.152;19.432;2024-03-23T05:31:11;18.30;;;8.80;;
66741;SDS011;53654;54.152;19.432;2024-03-23T05:33:39;21.10;;;9.30;;
66741;SDS011;53654;54.152;19.432;2024-03-23T05:36:07;16.10;;;8.40;;
66741;SDS011;53654;54.152;19.432;2024-03-23T05:38:39;15.70;;;8.10;;
66741;SDS011;53654;54.152;19.432;2024-03-23T05:41:07;14.00;;;8.00;;
66741;SDS011;53654;54.152;19.432;2024-03-23T05:43:35;17.80;;;8.00;;
66741;SDS011;53654;54.152;19.432;2024-03-23T05:46:03;18.00;;;8.50;;
66741;SDS011;53654;54.152;19.432;2024-03-23T05:48:35;18.30;;;8.40;;
66741;SDS011;53654;54.152;19.432;2024-03-23T05:51:03;20.10;;;8.80;;
66741;SDS011;53654;54.152;19.432;2024-03-23T05:53:31;19.40;;;9.30;;
66741;SDS011;53654;54.152;19.432;2024-03-23T05:56:01;18.00;;;10.00;;
66741;SDS011;53654;54.152;19.432;2024-03-23T05:58:33;16.40;;;8.20;;
66741;SDS011;53654;54.152;19.432;2024-03-23T06:01:01;19.80;;;9.00;;
66741;SDS011;53654;54.152;19.432;2024-03-23T06:03:30;16.80;;;8.80;;
66741;SDS011;53654;54.152;19.432;2024-03-23T06:05:58;17.60;;;8.60;;
66741;SDS011;53654;54.152;19.432;2024-03-23T06:08:26;17.70;;;8.80;;
66741;SDS011;53654;54.152;19.432;2024-03-23T06:10:54;20.50;;;8.30;;
66741;SDS011;53654;54.152;19.432;2024-03-23T06:13:21;18.30;;;7.90;;
66741;SDS011;53654;54.152;19.432;2024-03-23T06:15:58;16.90;;;7.70;;
66741;SDS011;53654;54.152;19.432;2024-03-23T06:18:26;16.70;;;7.10;;
66741;SDS011;53654;54.152;19.432;2024-03-23T06:20:54;18.90;;;7.90;;
66741;SDS011;53654;54.152;19.432;2024-03-23T06:23:22;18.40;;;8.40;;
66741;SDS011;53654;54.152;19.432;2024-03-23T06:25:50;17.60;;;8.60;;
66741;SDS011;53654;54.152;19.432;2024-03-23T06:28:18;16.80;;;8.10;;
66741;SDS011;53654;54.152;19.432;2024-03-23T06:30:46;18.50;;;8.30;;
66741;SDS011;53654;54.152;19.432;2024-03-23T06:33:14;18.40;;;8.30;;
66741;SDS011;53654;54.152;19.432;2024-03-23T06:35:42;16.90;;;8.20;;
66741;SDS011;53654;54.152;19.432;2024-03-23T06:38:10;18.10;;;8.30;;
66741;SDS011;53654;54.152;19.432;2024-03-23T06:40:38;18.00;;;8.00;;
66741;SDS011;53654;54.152;19.432;2024-03-23T06:43:06;16.40;;;8.00;;
66741;SDS011;53654;54.152;19.432;2024-03-23T06:45:33;17.90;;;7.80;;
66741;SDS011;53654;54.152;19.432;2024-03-23T06:48:01;16.80;;;7.40;;
66741;SDS011;53654;54.152;19.432;2024-03-23T06:50:31;21.00;;;7.90;;
66741;SDS011;53654;54.152;19.432;2024-03-23T06:52:58;18.40;;;7.90;;
66741;SDS011;53654;54.152;19.432;2024-03-23T06:55:26;16.90;;;7.80;;
66741;SDS011;53654;54.152;19.432;2024-03-23T06:57:55;20.30;;;8.10;;
66741;SDS011;53654;54.152;19.432;2024-03-23T07:00:23;18.00;;;7.80;;
66741;SDS011;53654;54.152;19.432;2024-03-23T07:02:52;17.10;;;8.10;;
66741;SDS011;53654;54.152;19.432;2024-03-23T07:05:20;17.50;;;7.80;;
66741;SDS011;53654;54.152;19.432;2024-03-23T07:07:48;17.60;;;8.00;;
66741;SDS011;53654;54.152;19.432;2024-03-23T07:10:16;17.70;;;8.20;;
66741;SDS011;53654;54.152;19.432;2024-03-23T07:12:45;17.40;;;7.90;;
66741;SDS011;53654;54.152;19.432;2024-03-23T07:15:12;16.50;;;7.80;;
66741;SDS011;53654;54.152;19.432;2024-03-23T07:17:40;16.00;;;7.70;;
66741;SDS011;53654;54.152;19.432;2024-03-23T07:20:09;17.80;;;8.00;;
66741;SDS011;53654;54.152;19.432;2024-03-23T07:22:37;20.90;;;8.10;;
66741;SDS011;53654;54.152;19.432;2024-03-23T07:25:05;17.00;;;8.20;;
66741;SDS011;53654;54.152;19.432;2024-03-23T07:27:33;15.90;;;8.30;;
66741;SDS011;53654;54.152;19.432;2024-03-23T07:30:02;19.60;;;9.40;;
66741;SDS011;53654;54.152;19.432;2024-03-23T07:32:30;18.40;;;8.80;;
66741;SDS011;53654;54.152;19.432;2024-03-23T07:34:58;17.90;;;9.10;;
66741;SDS011;53654;54.152;19.432;2024-03-23T07:37:26;21.20;;;9.60;;
66741;SDS011;53654;54.152;19.432;2024-03-23T07:39:54;18.00;;;9.30;;
66741;SDS011;53654;54.152;19.432;2024-03-23T07:42:22;17.40;;;8.50;;
66741;SDS011;53654;54.152;19.432;2024-03-23T07:44:50;16.30;;;8.30;;
66741;SDS011;53654;54.152;19.432;2024-03-23T07:47:18;19.90;;;8.40;;
66741;SDS011;53654;54.152;19.432;2024-03-23T07:49:47;13.70;;;6.80;;
66741;SDS011;53654;54.152;19.432;2024-03-23T07:52:15;16.90;;;6.50;;
66741;SDS011;53654;54.152;19.432;2024-03-23T07:54:43;11.50;;;5.30;;
66741;SDS011;53654;54.152;19.432;2024-03-23T07:57:10;12.40;;;5.20;;
66741;SDS011;53654;54.152;19.432;2024-03-23T07:59:38;12.80;;;4.90;;
66741;SDS011;53654;54.152;19.432;2024-03-23T08:02:06;11.80;;;5.10;;
66741;SDS011;53654;54.152;19.432;2024-03-23T08:04:34;12.00;;;5.20;;
66741;SDS011;53654;54.152;19.432;2024-03-23T08:07:02;13.00;;;5.80;;
66741;SDS011;53654;54.152;19.432;2024-03-23T08:09:30;13.10;;;6.30;;
66741;SDS011;53654;54.152;19.432;2024-03-23T08:11:58;11.80;;;5.90;;
66741;SDS011;53654;54.152;19.432;2024-03-23T08:14:26;13.10;;;6.60;;
66741;SDS011;53654;54.152;19.432;2024-03-23T08:16:54;13.40;;;6.80;;
66741;SDS011;53654;54.152;19.432;2024-03-23T08:19:22;13.90;;;6.30;;
66741;SDS011;53654;54.152;19.432;2024-03-23T08:21:50;12.50;;;5.70;;
66741;SDS011;53654;54.152;19.432;2024-03-23T08:24:19;10.60;;;5.20;;
66741;SDS011;53654;54.152;19.432;2024-03-23T08:26:47;11.90;;;4.70;;
66741;SDS011;53654;54.152;19.432;2024-03-23T08:29:15;12.20;;;4.90;;
66741;SDS011;53654;54.152;19.432;2024-03-23T08:31:43;10.50;;;4.50;;
66741;SDS011;53654;54.152;19.432;2024-03-23T08:34:11;9.80;;;4.90;;
66741;SDS011;53654;54.152;19.432;2024-03-23T08:36:39;11.10;;;4.80;;
66741;SDS011;53654;54.152;19.432;2024-03-23T08:39:07;10.70;;;4.20;;
66741;SDS011;53654;54.152;19.432;2024-03-23T08:41:47;8.80;;;4.20;;
66741;SDS011;53654;54.152;19.432;2024-03-23T08:44:15;10.30;;;4.30;;
66741;SDS011;53654;54.152;19.432;2024-03-23T08:46:43;8.80;;;4.00;;
66741;SDS011;53654;54.152;19.432;2024-03-23T08:49:10;8.00;;;3.80;;
66741;SDS011;53654;54.152;19.432;2024-03-23T08:51:40;7.90;;;4.10;;
66741;SDS011;53654;54.152;19.432;2024-03-23T08:54:08;11.80;;;5.80;;
66741;SDS011;53654;54.152;19.432;2024-03-23T08:56:36;10.70;;;5.60;;
66741;SDS011;53654;54.152;19.432;2024-03-23T08:59:04;10.40;;;5.70;;
66741;SDS011;53654;54.152;19.432;2024-03-23T09:01:32;10.40;;;5.00;;
66741;SDS011;53654;54.152;19.432;2024-03-23T09:04:00;9.00;;;4.20;;
66741;SDS011;53654;54.152;19.432;2024-03-23T09:06:28;8.30;;;3.80;;
66741;SDS011;53654;54.152;19.432;2024-03-23T09:08:56;8.30;;;3.70;;
66741;SDS011;53654;54.152;19.432;2024-03-23T09:11:24;8.30;;;3.70;;
66741;SDS011;53654;54.152;19.432;2024-03-23T09:13:52;8.00;;;4.10;;
66741;SDS011;53654;54.152;19.432;2024-03-23T09:16:20;7.50;;;3.60;;
66741;SDS011;53654;54.152;19.432;2024-03-23T09:18:47;8.80;;;3.80;;
66741;SDS011;53654;54.152;19.432;2024-03-23T09:21:16;7.80;;;3.80;;
66741;SDS011;53654;54.152;19.432;2024-03-23T09:23:44;8.70;;;4.00;;
66741;SDS011;53654;54.152;19.432;2024-03-23T09:26:12;9.50;;;4.30;;
66741;SDS011;53654;54.152;19.432;2024-03-23T09:28:40;8.70;;;4.40;;
66741;SDS011;53654;54.152;19.432;2024-03-23T09:31:08;8.80;;;4.00;;
66741;SDS011;53654;54.152;19.432;2024-03-23T09:33:42;8.20;;;4.00;;
66741;SDS011;53654;54.152;19.432;2024-03-23T09:36:10;8.40;;;3.70;;
66741;SDS011;53654;54.152;19.432;2024-03-23T09:38:38;10.00;;;4.40;;
66741;SDS011;53654;54.152;19.432;2024-03-23T09:41:07;8.50;;;4.20;;
66741;SDS011;53654;54.152;19.432;2024-03-23T09:43:36;8.50;;;3.80;;
66741;SDS011;53654;54.152;19.432;2024-03-23T09:46:04;9.00;;;4.30;;
66741;SDS011;53654;54.152;19.432;2024-03-23T09:48:33;8.90;;;4.70;;
66741;SDS011;53654;54.152;19.432;2024-03-23T09:51:01;8.10;;;4.40;;
66741;SDS011;53654;54.152;19.432;2024-03-23T09:53:30;10.60;;;4.90;;
66741;SDS011;53654;54.152;19.432;2024-03-23T09:56:00;8.40;;;4.00;;
66741;SDS011;53654;54.152;19.432;2024-03-23T09:58:28;9.50;;;4.20;;
66741;SDS011;53654;54.152;19.432;2024-03-23T10:00:56;8.50;;;3.80;;
66741;SDS011;53654;54.152;19.432;2024-03-23T10:03:25;9.60;;;3.70;;
66741;SDS011;53654;54.152;19.432;2024-03-23T10:06:02;6.70;;;3.80;;
66741;SDS011;53654;54.152;19.432;2024-03-23T10:08:30;6.90;;;4.10;;
66741;SDS011;53654;54.152;19.432;2024-03-23T10:11:15;7.90;;;3.80;;
66741;SDS011;53654;54.152;19.432;2024-03-23T10:13:44;7.00;;;3.70;;
66741;SDS011;53654;54.152;19.432;2024-03-23T10:16:20;8.30;;;3.50;;
66741;SDS011;53654;54.152;19.432;2024-03-23T10:18:50;7.70;;;3.70;;
66741;SDS011;53654;54.152;19.432;2024-03-23T10:21:18;6.60;;;3.40;;
66741;SDS011;53654;54.152;19.432;2024-03-23T10:23:46;6.10;;;3.60;;
66741;SDS011;53654;54.152;19.432;2024-03-23T10:28:52;8.50;;;3.90;;
66741;SDS011;53654;54.152;19.432;2024-03-23T10:31:20;9.00;;;4.80;;
66741;SDS011;53654;54.152;19.432;2024-03-23T10:33:49;6.00;;;3.70;;
66741;SDS011;53654;54.152;19.432;2024-03-23T10:36:17;4.10;;;2.70;;
66741;SDS011;53654;54.152;19.432;2024-03-23T10:38:48;3.00;;;2.00;;
66741;SDS011;53654;54.152;19.432;2024-03-23T10:41:18;4.40;;;2.50;;
66741;SDS011;53654;54.152;19.432;2024-03-23T10:43:47;4.00;;;2.50;;
66741;SDS011;53654;54.152;19.432;2024-03-23T10:46:16;4.20;;;2.60;;
66741;SDS011;53654;54.152;19.432;2024-03-23T10:48:44;4.80;;;2.90;;
66741;SDS011;53654;54.152;19.432;2024-03-23T10:51:12;6.60;;;2.90;;
66741;SDS011;53654;54.152;19.432;2024-03-23T10:53:42;5.10;;;3.20;;
66741;SDS011;53654;54.152;19.432;2024-03-23T10:56:10;7.10;;;3.30;;
66741;SDS011;53654;54.152;19.432;2024-03-23T10:58:46;5.80;;;3.90;;
66741;SDS011;53654;54.152;19.432;2024-03-23T11:01:16;5.30;;;4.00;;
66741;SDS011;53654;54.152;19.432;2024-03-23T11:03:46;5.70;;;3.40;;
66741;SDS011;53654;54.152;19.432;2024-03-23T11:06:48;6.40;;;3.90;;
66741;SDS011;53654;54.152;19.432;2024-03-23T11:12:48;6.00;;;3.60;;
66741;SDS011;53654;54.152;19.432;2024-03-23T11:15:06;5.40;;;3.10;;
66741;SDS011;53654;54.152;19.432;2024-03-23T11:17:39;5.30;;;3.40;;
66741;SDS011;53654;54.152;19.432;2024-03-23T11:20:07;4.80;;;3.90;;
66741;SDS011;53654;54.152;19.432;2024-03-23T11:22:37;7.50;;;4.40;;
66741;SDS011;53654;54.152;19.432;2024-03-23T11:27:45;7.00;;;4.70;;
66741;SDS011;53654;54.152;19.432;2024-03-23T11:30:17;5.10;;;3.80;;
66741;SDS011;53654;54.152;19.432;2024-03-23T11:32:46;5.50;;;3.60;;
66741;SDS011;53654;54.152;19.432;2024-03-23T11:35:30;5.80;;;4.00;;
66741;SDS011;53654;54.152;19.432;2024-03-23T11:40:34;6.20;;;3.20;;
66741;SDS011;53654;54.152;19.432;2024-03-23T11:43:04;3.90;;;2.50;;
66741;SDS011;53654;54.152;19.432;2024-03-23T11:45:34;4.60;;;2.60;;
66741;SDS011;53654;54.152;19.432;2024-03-23T11:50:33;5.00;;;2.70;;
66741;SDS011;53654;54.152;19.432;2024-03-23T11:55:52;4.60;;;3.00;;
66741;SDS011;53654;54.152;19.432;2024-03-23T11:58:24;4.20;;;2.80;;
66741;SDS011;53654;54.152;19.432;2024-03-23T12:00:57;6.10;;;4.00;;
66741;SDS011;53654;54.152;19.432;2024-03-23T12:03:37;5.10;;;3.20;;
66741;SDS011;53654;54.152;19.432;2024-03-23T12:06:05;4.30;;;3.10;;
66741;SDS011;53654;54.152;19.432;2024-03-23T12:08:35;5.60;;;3.30;;
66741;SDS011;53654;54.152;19.432;2024-03-23T12:11:07;4.80;;;3.00;;
66741;SDS011;53654;54.152;19.432;2024-03-23T12:13:37;3.80;;;2.70;;
66741;SDS011;53654;54.152;19.432;2024-03-23T12:18:37;3.90;;;2.10;;
66741;SDS011;53654;54.152;19.432;2024-03-23T12:21:07;4.70;;;2.10;;
66741;SDS011;53654;54.152;19.432;2024-03-23T12:23:38;3.70;;;2.50;;
66741;SDS011;53654;54.152;19.432;2024-03-23T12:26:07;4.00;;;2.40;;
66741;SDS011;53654;54.152;19.432;2024-03-23T12:28:35;5.00;;;2.90;;
66741;SDS011;53654;54.152;19.432;2024-03-23T12:31:03;5.00;;;2.90;;
66741;SDS011;53654;54.152;19.432;2024-03-23T12:33:31;5.00;;;3.10;;
66741;SDS011;53654;54.152;19.432;2024-03-23T12:35:59;4.80;;;2.90;;
66741;SDS011;53654;54.152;19.432;2024-03-23T12:38:27;5.40;;;2.90;;
66741;SDS011;53654;54.152;19.432;2024-03-23T12:40:55;4.30;;;2.70;;
66741;SDS011;53654;54.152;19.432;2024-03-23T12:43:23;5.20;;;3.10;;
66741;SDS011;53654;54.152;19.432;2024-03-23T12:45:51;5.10;;;3.20;;
66741;SDS011;53654;54.152;19.432;2024-03-23T12:48:19;5.20;;;2.90;;
66741;SDS011;53654;54.152;19.432;2024-03-23T12:50:47;6.20;;;2.90;;
66741;SDS011;53654;54.152;19.432;2024-03-23T12:53:15;3.90;;;2.20;;
66741;SDS011;53654;54.152;19.432;2024-03-23T12:55:43;3.80;;;2.30;;
66741;SDS011;53654;54.152;19.432;2024-03-23T12:58:10;2.60;;;2.00;;
66741;SDS011;53654;54.152;19.432;2024-03-23T13:00:38;2.30;;;1.50;;
66741;SDS011;53654;54.152;19.432;2024-03-23T13:03:07;1.90;;;1.20;;
66741;SDS011;53654;54.152;19.432;2024-03-23T13:05:41;2.00;;;1.30;;
66741;SDS011;53654;54.152;19.432;2024-03-23T13:08:09;1.70;;;1.30;;
66741;SDS011;53654;54.152;19.432;2024-03-23T13:10:37;1.90;;;1.20;;
66741;SDS011;53654;54.152;19.432;2024-03-23T13:13:05;1.70;;;1.40;;
66741;SDS011;53654;54.152;19.432;2024-03-23T13:15:35;1.70;;;1.50;;
66741;SDS011;53654;54.152;19.432;2024-03-23T13:18:03;1.60;;;1.40;;
66741;SDS011;53654;54.152;19.432;2024-03-23T13:20:31;2.70;;;1.60;;
66741;SDS011;53654;54.152;19.432;2024-03-23T13:22:59;2.80;;;2.00;;
66741;SDS011;53654;54.152;19.432;2024-03-23T13:25:27;1.40;;;1.30;;
66741;SDS011;53654;54.152;19.432;2024-03-23T13:27:55;2.30;;;1.90;;
66741;SDS011;53654;54.152;19.432;2024-03-23T13:30:23;2.60;;;1.70;;
66741;SDS011;53654;54.152;19.432;2024-03-23T13:32:51;2.40;;;1.70;;
66741;SDS011;53654;54.152;19.432;2024-03-23T13:35:19;3.00;;;1.50;;
66741;SDS011;53654;54.152;19.432;2024-03-23T13:37:47;1.60;;;1.30;;
66741;SDS011;53654;54.152;19.432;2024-03-23T13:40:15;1.90;;;1.30;;
66741;SDS011;53654;54.152;19.432;2024-03-23T13:42:43;2.20;;;1.20;;
66741;SDS011;53654;54.152;19.432;2024-03-23T13:45:11;2.10;;;1.30;;
66741;SDS011;53654;54.152;19.432;2024-03-23T13:47:45;1.80;;;1.30;;
66741;SDS011;53654;54.152;19.432;2024-03-23T13:50:13;2.40;;;1.60;;
66741;SDS011;53654;54.152;19.432;2024-03-23T13:52:41;2.50;;;1.70;;
66741;SDS011;53654;54.152;19.432;2024-03-23T13:55:09;3.50;;;1.90;;
66741;SDS011;53654;54.152;19.432;2024-03-23T13:57:40;2.60;;;1.40;;
66741;SDS011;53654;54.152;19.432;2024-03-23T14:00:09;2.60;;;1.60;;
66741;SDS011;53654;54.152;19.432;2024-03-23T14:02:39;1.80;;;1.20;;
66741;SDS011;53654;54.152;19.432;2024-03-23T14:05:07;2.20;;;1.40;;
66741;SDS011;53654;54.152;19.432;2024-03-23T14:07:35;3.10;;;1.80;;
66741;SDS011;53654;54.152;19.432;2024-03-23T14:10:04;3.50;;;2.30;;
66741;SDS011;53654;54.152;19.432;2024-03-23T14:12:33;7.90;;;5.40;;
66741;SDS011;53654;54.152;19.432;2024-03-23T14:15:03;9.50;;;6.90;;
66741;SDS011;53654;54.152;19.432;2024-03-23T14:17:33;8.10;;;5.40;;
66741;SDS011;53654;54.152;19.432;2024-03-23T14:20:01;4.90;;;3.70;;
66741;SDS011;53654;54.152;19.432;2024-03-23T14:22:38;5.50;;;3.70;;
66741;SDS011;53654;54.152;19.432;2024-03-23T14:25:09;8.40;;;5.40;;
66741;SDS011;53654;54.152;19.432;2024-03-23T14:27:37;7.60;;;4.60;;
66741;SDS011;53654;54.152;19.432;2024-03-23T14:30:05;8.30;;;4.90;;
66741;SDS011;53654;54.152;19.432;2024-03-23T14:32:34;8.70;;;5.60;;
66741;SDS011;53654;54.152;19.432;2024-03-23T14:35:02;10.70;;;7.30;;
66741;SDS011;53654;54.152;19.432;2024-03-23T14:37:37;11.60;;;8.80;;
66741;SDS011;53654;54.152;19.432;2024-03-23T14:40:06;14.80;;;10.60;;
66741;SDS011;53654;54.152;19.432;2024-03-23T14:42:34;10.40;;;8.50;;
66741;SDS011;53654;54.152;19.432;2024-03-23T14:45:02;8.50;;;5.60;;
66741;SDS011;53654;54.152;19.432;2024-03-23T14:47:31;8.90;;;5.80;;
66741;SDS011;53654;54.152;19.432;2024-03-23T14:49:59;10.80;;;6.80;;
66741;SDS011;53654;54.152;19.432;2024-03-23T14:52:28;11.00;;;7.10;;
66741;SDS011;53654;54.152;19.432;2024-03-23T14:54:56;6.60;;;4.90;;
66741;SDS011;53654;54.152;19.432;2024-03-23T14:57:24;20.80;;;16.00;;
66741;SDS011;53654;54.152;19.432;2024-03-23T14:59:52;21.90;;;15.90;;
66741;SDS011;53654;54.152;19.432;2024-03-23T15:02:20;11.10;;;9.00;;
66741;SDS011;53654;54.152;19.432;2024-03-23T15:04:48;11.10;;;9.40;;
66741;SDS011;53654;54.152;19.432;2024-03-23T15:07:16;10.30;;;9.20;;
66741;SDS011;53654;54.152;19.432;2024-03-23T15:09:44;15.20;;;13.60;;
66741;SDS011;53654;54.152;19.432;2024-03-23T15:12:12;15.10;;;13.50;;
66741;SDS011;53654;54.152;19.432;2024-03-23T15:14:40;11.00;;;9.60;;
66741;SDS011;53654;54.152;19.432;2024-03-23T15:17:08;10.80;;;9.50;;
66741;SDS011;53654;54.152;19.432;2024-03-23T15:19:36;8.50;;;6.80;;
66741;SDS011;53654;54.152;19.432;2024-03-23T15:22:04;7.80;;;6.40;;
66741;SDS011;53654;54.152;19.432;2024-03-23T15:24:32;7.30;;;6.10;;
66741;SDS011;53654;54.152;19.432;2024-03-23T15:27:03;8.30;;;7.00;;
66741;SDS011;53654;54.152;19.432;2024-03-23T15:29:33;9.80;;;7.90;;
66741;SDS011;53654;54.152;19.432;2024-03-23T15:32:01;10.30;;;8.90;;
66741;SDS011;53654;54.152;19.432;2024-03-23T15:34:30;7.70;;;6.80;;
66741;SDS011;53654;54.152;19.432;2024-03-23T15:36:58;4.80;;;4.20;;
66741;SDS011;53654;54.152;19.432;2024-03-23T15:39:26;5.60;;;4.10;;
66741;SDS011;53654;54.152;19.432;2024-03-23T15:41:58;7.00;;;4.90;;
66741;SDS011;53654;54.152;19.432;2024-03-23T15:44:27;8.90;;;6.60;;
66741;SDS011;53654;54.152;19.432;2024-03-23T15:46:57;7.40;;;6.30;;